Airport Name : Brookings State

Other Name : Brookings

ICAO : KBOK

IATA : BOK

FAA : BOK

Latitude : 42.07455

Longitude : -124.2901

Country : United States

Local Date and Time : 21 Jul 2024 19:10

 

TAF (Terminal Aerodrome Forecast)

 

METAR (METeorological Aerodrome Report)

KBOK 220156Z AUTO 16007KT 10SM -RA CLR 18/14 A3003 RMK AO2 RAB09 SLP169 P0000 T01830139

KBOK 220056Z AUTO 16007KT 10SM CLR 19/14 A3003 RMK AO2 SLP169 T01940139

KBOK 212356Z AUTO 15007KT 10SM CLR 20/14 A3004 RMK AO2 SLP172 T02000144 10206 20161 58008

KBOK 212256Z AUTO 14007KT 10SM CLR 19/14 A3005 RMK AO2 SLP176 T01940144